sensor_id;sensor_type;location;lat;lon;timestamp;temperature;humidity
41447;DHT22;27185;52.040;4.490;2023-07-29T00:00:23;20.50;99.90
41447;DHT22;27185;52.040;4.490;2023-07-29T00:03:09;20.60;99.90
41447;DHT22;27185;52.040;4.490;2023-07-29T00:05:55;20.60;99.90
41447;DHT22;27185;52.040;4.490;2023-07-29T00:08:40;20.60;99.90
41447;DHT22;27185;52.040;4.490;2023-07-29T00:11:26;20.50;99.90
41447;DHT22;27185;52.040;4.490;2023-07-29T00:14:11;20.60;99.90
41447;DHT22;27185;52.040;4.490;2023-07-29T00:16:57;20.50;99.90
41447;DHT22;27185;52.040;4.490;2023-07-29T00:19:43;20.50;99.90
41447;DHT22;27185;52.040;4.490;2023-07-29T00:22:28;20.40;99.90
41447;DHT22;27185;52.040;4.490;2023-07-29T00:25:14;20.40;99.90
41447;DHT22;27185;52.040;4.490;2023-07-29T00:27:59;20.30;99.90
41447;DHT22;27185;52.040;4.490;2023-07-29T00:30:45;20.20;99.90
41447;DHT22;27185;52.040;4.490;2023-07-29T00:33:32;20.10;99.90
41447;DHT22;27185;52.040;4.490;2023-07-29T00:36:18;20.10;99.90
41447;DHT22;27185;52.040;4.490;2023-07-29T00:39:03;20.00;99.90
41447;DHT22;27185;52.040;4.490;2023-07-29T00:41:49;19.90;99.90
41447;DHT22;27185;52.040;4.490;2023-07-29T00:44:36;19.90;99.90
41447;DHT22;27185;52.040;4.490;2023-07-29T00:47:22;19.90;99.90
41447;DHT22;27185;52.040;4.490;2023-07-29T00:50:14;19.80;99.90
41447;DHT22;27185;52.040;4.490;2023-07-29T00:53:00;19.80;99.90
41447;DHT22;27185;52.040;4.490;2023-07-29T00:55:46;19.70;99.90
41447;DHT22;27185;52.040;4.490;2023-07-29T00:58:32;19.70;99.90
41447;DHT22;27185;52.040;4.490;2023-07-29T01:01:17;19.70;99.90
41447;DHT22;27185;52.040;4.490;2023-07-29T01:04:03;19.70;99.90
41447;DHT22;27185;52.040;4.490;2023-07-29T01:18:31;19.60;99.90
41447;DHT22;27185;52.040;4.490;2023-07-29T01:21:17;19.60;99.90
41447;DHT22;27185;52.040;4.490;2023-07-29T01:24:03;19.60;99.90
41447;DHT22;27185;52.040;4.490;2023-07-29T01:26:49;19.50;99.90
41447;DHT22;27185;52.040;4.490;2023-07-29T01:29:34;19.50;99.90
41447;DHT22;27185;52.040;4.490;2023-07-29T01:32:53;19.50;99.90
41447;DHT22;27185;52.040;4.490;2023-07-29T01:35:47;19.50;99.90
41447;DHT22;27185;52.040;4.490;2023-07-29T01:38:36;19.50;99.90
41447;DHT22;27185;52.040;4.490;2023-07-29T01:41:24;19.50;99.90
41447;DHT22;27185;52.040;4.490;2023-07-29T01:44:10;19.50;99.90
41447;DHT22;27185;52.040;4.490;2023-07-29T01:46:56;19.50;99.90
41447;DHT22;27185;52.040;4.490;2023-07-29T01:49:42;19.50;99.90
41447;DHT22;27185;52.040;4.490;2023-07-29T01:52:28;19.50;99.90
41447;DHT22;27185;52.040;4.490;2023-07-29T01:55:13;19.50;99.90
41447;DHT22;27185;52.040;4.490;2023-07-29T01:57:59;19.50;99.90
41447;DHT22;27185;52.040;4.490;2023-07-29T02:00:44;19.50;99.90
41447;DHT22;27185;52.040;4.490;2023-07-29T02:03:30;19.50;99.90
41447;DHT22;27185;52.040;4.490;2023-07-29T02:06:16;19.50;99.90
41447;DHT22;27185;52.040;4.490;2023-07-29T02:09:01;19.40;99.90
41447;DHT22;27185;52.040;4.490;2023-07-29T02:11:47;19.40;99.90
41447;DHT22;27185;52.040;4.490;2023-07-29T02:14:32;19.40;99.90
41447;DHT22;27185;52.040;4.490;2023-07-29T02:17:18;19.40;99.90
41447;DHT22;27185;52.040;4.490;2023-07-29T02:20:04;19.40;99.90
41447;DHT22;27185;52.040;4.490;2023-07-29T02:22:50;19.40;99.90
41447;DHT22;27185;52.040;4.490;2023-07-29T02:25:36;19.40;99.90
41447;DHT22;27185;52.040;4.490;2023-07-29T02:28:22;19.40;99.90
41447;DHT22;27185;52.040;4.490;2023-07-29T02:34:05;19.30;99.90
41447;DHT22;27185;52.040;4.490;2023-07-29T02:36:50;19.30;99.90
41447;DHT22;27185;52.040;4.490;2023-07-29T02:39:36;19.30;99.90
41447;DHT22;27185;52.040;4.490;2023-07-29T02:42:22;19.30;99.90
41447;DHT22;27185;52.040;4.490;2023-07-29T02:45:08;19.30;99.90
41447;DHT22;27185;52.040;4.490;2023-07-29T02:47:55;19.30;99.90
41447;DHT22;27185;52.040;4.490;2023-07-29T02:50:41;19.30;99.90
41447;DHT22;27185;52.040;4.490;2023-07-29T02:53:26;19.30;99.90
41447;DHT22;27185;52.040;4.490;2023-07-29T02:56:12;19.20;99.90
41447;DHT22;27185;52.040;4.490;2023-07-29T02:58:57;19.20;99.90
41447;DHT22;27185;52.040;4.490;2023-07-29T03:01:43;19.20;99.90
41447;DHT22;27185;52.040;4.490;2023-07-29T03:04:29;19.20;99.90
41447;DHT22;27185;52.040;4.490;2023-07-29T03:07:14;19.20;99.90
41447;DHT22;27185;52.040;4.490;2023-07-29T03:10:00;19.20;99.90
41447;DHT22;27185;52.040;4.490;2023-07-29T03:12:46;19.20;99.90
41447;DHT22;27185;52.040;4.490;2023-07-29T03:15:31;19.20;99.90
41447;DHT22;27185;52.040;4.490;2023-07-29T03:18:19;19.20;99.90
41447;DHT22;27185;52.040;4.490;2023-07-29T03:21:05;19.20;99.90
41447;DHT22;27185;52.040;4.490;2023-07-29T03:23:50;19.20;99.90
41447;DHT22;27185;52.040;4.490;2023-07-29T03:26:36;19.20;99.90
41447;DHT22;27185;52.040;4.490;2023-07-29T03:29:22;19.20;99.90
41447;DHT22;27185;52.040;4.490;2023-07-29T03:32:08;19.30;99.90
41447;DHT22;27185;52.040;4.490;2023-07-29T03:34:54;19.30;99.90
41447;DHT22;27185;52.040;4.490;2023-07-29T03:37:39;19.40;99.90
41447;DHT22;27185;52.040;4.490;2023-07-29T03:40:25;19.40;99.90
41447;DHT22;27185;52.040;4.490;2023-07-29T03:43:11;19.40;99.90
41447;DHT22;27185;52.040;4.490;2023-07-29T03:45:57;19.50;99.90
41447;DHT22;27185;52.040;4.490;2023-07-29T03:48:42;19.50;99.90
41447;DHT22;27185;52.040;4.490;2023-07-29T03:51:28;19.60;99.90
41447;DHT22;27185;52.040;4.490;2023-07-29T03:54:14;19.60;99.90
41447;DHT22;27185;52.040;4.490;2023-07-29T03:56:59;19.70;99.90
41447;DHT22;27185;52.040;4.490;2023-07-29T03:59:45;19.70;99.90
41447;DHT22;27185;52.040;4.490;2023-07-29T04:02:30;19.70;99.90
41447;DHT22;27185;52.040;4.490;2023-07-29T04:05:16;19.80;99.90
41447;DHT22;27185;52.040;4.490;2023-07-29T04:08:02;19.80;99.90
41447;DHT22;27185;52.040;4.490;2023-07-29T04:10:48;19.80;99.90
41447;DHT22;27185;52.040;4.490;2023-07-29T04:13:33;19.80;99.90
41447;DHT22;27185;52.040;4.490;2023-07-29T04:16:19;19.80;99.90
41447;DHT22;27185;52.040;4.490;2023-07-29T04:19:05;19.80;99.90
41447;DHT22;27185;52.040;4.490;2023-07-29T04:21:50;19.80;99.90
41447;DHT22;27185;52.040;4.490;2023-07-29T04:24:36;19.80;99.90
41447;DHT22;27185;52.040;4.490;2023-07-29T04:27:22;19.70;99.90
41447;DHT22;27185;52.040;4.490;2023-07-29T04:30:08;19.70;99.90
41447;DHT22;27185;52.040;4.490;2023-07-29T04:32:53;19.70;99.90
41447;DHT22;27185;52.040;4.490;2023-07-29T04:35:39;19.70;99.90
41447;DHT22;27185;52.040;4.490;2023-07-29T04:38:31;19.70;99.90
41447;DHT22;27185;52.040;4.490;2023-07-29T04:41:20;19.70;99.90
41447;DHT22;27185;52.040;4.490;2023-07-29T04:44:06;19.70;99.90
41447;DHT22;27185;52.040;4.490;2023-07-29T04:46:52;19.70;99.90
41447;DHT22;27185;52.040;4.490;2023-07-29T04:49:38;19.70;99.90
41447;DHT22;27185;52.040;4.490;2023-07-29T04:52:26;19.80;99.90
41447;DHT22;27185;52.040;4.490;2023-07-29T04:55:12;19.80;99.90
41447;DHT22;27185;52.040;4.490;2023-07-29T04:57:58;19.80;99.90
41447;DHT22;27185;52.040;4.490;2023-07-29T05:00:47;19.80;99.90
41447;DHT22;27185;52.040;4.490;2023-07-29T05:03:32;19.80;99.90
41447;DHT22;27185;52.040;4.490;2023-07-29T05:06:18;19.80;99.90
41447;DHT22;27185;52.040;4.490;2023-07-29T05:09:17;19.90;99.90
41447;DHT22;27185;52.040;4.490;2023-07-29T05:12:04;19.90;99.90
41447;DHT22;27185;52.040;4.490;2023-07-29T05:14:49;19.90;99.90
41447;DHT22;27185;52.040;4.490;2023-07-29T05:17:35;19.90;99.90
41447;DHT22;27185;52.040;4.490;2023-07-29T05:20:20;19.90;99.90
41447;DHT22;27185;52.040;4.490;2023-07-29T05:23:06;19.90;99.90
41447;DHT22;27185;52.040;4.490;2023-07-29T05:25:52;19.90;99.90
41447;DHT22;27185;52.040;4.490;2023-07-29T05:28:37;19.90;99.90
41447;DHT22;27185;52.040;4.490;2023-07-29T05:31:23;20.00;99.90
41447;DHT22;27185;52.040;4.490;2023-07-29T05:34:08;20.00;99.90
41447;DHT22;27185;52.040;4.490;2023-07-29T05:36:54;20.00;99.90
41447;DHT22;27185;52.040;4.490;2023-07-29T05:39:39;20.00;99.90
41447;DHT22;27185;52.040;4.490;2023-07-29T05:42:25;20.10;99.90
41447;DHT22;27185;52.040;4.490;2023-07-29T05:45:11;20.10;99.90
41447;DHT22;27185;52.040;4.490;2023-07-29T05:47:57;20.10;99.90
41447;DHT22;27185;52.040;4.490;2023-07-29T05:50:42;20.20;99.90
41447;DHT22;27185;52.040;4.490;2023-07-29T05:53:28;20.20;99.90
41447;DHT22;27185;52.040;4.490;2023-07-29T05:56:13;20.30;99.90
41447;DHT22;27185;52.040;4.490;2023-07-29T05:58:59;20.30;99.90
41447;DHT22;27185;52.040;4.490;2023-07-29T06:01:45;20.30;99.90
41447;DHT22;27185;52.040;4.490;2023-07-29T06:04:30;20.40;99.90
41447;DHT22;27185;52.040;4.490;2023-07-29T06:07:19;20.40;99.90
41447;DHT22;27185;52.040;4.490;2023-07-29T06:10:05;20.40;99.90
41447;DHT22;27185;52.040;4.490;2023-07-29T06:12:50;20.40;99.90
41447;DHT22;27185;52.040;4.490;2023-07-29T06:15:36;20.50;99.90
41447;DHT22;27185;52.040;4.490;2023-07-29T06:18:21;20.50;99.90
41447;DHT22;27185;52.040;4.490;2023-07-29T06:21:07;20.60;99.90
41447;DHT22;27185;52.040;4.490;2023-07-29T06:23:53;20.60;99.90
41447;DHT22;27185;52.040;4.490;2023-07-29T06:26:38;20.70;99.90
41447;DHT22;27185;52.040;4.490;2023-07-29T06:29:24;20.60;99.90
41447;DHT22;27185;52.040;4.490;2023-07-29T06:32:10;20.60;99.90
41447;DHT22;27185;52.040;4.490;2023-07-29T06:34:55;20.60;99.90
41447;DHT22;27185;52.040;4.490;2023-07-29T06:37:41;20.50;99.90
41447;DHT22;27185;52.040;4.490;2023-07-29T06:40:26;20.60;99.90
41447;DHT22;27185;52.040;4.490;2023-07-29T06:43:12;20.60;99.90
41447;DHT22;27185;52.040;4.490;2023-07-29T06:45:58;20.60;99.90
41447;DHT22;27185;52.040;4.490;2023-07-29T06:48:43;20.70;99.90
41447;DHT22;27185;52.040;4.490;2023-07-29T06:51:29;20.80;99.90
41447;DHT22;27185;52.040;4.490;2023-07-29T06:54:17;20.80;99.90
41447;DHT22;27185;52.040;4.490;2023-07-29T06:57:03;21.00;99.90
41447;DHT22;27185;52.040;4.490;2023-07-29T06:59:49;21.00;99.90
41447;DHT22;27185;52.040;4.490;2023-07-29T07:02:35;21.20;99.90
41447;DHT22;27185;52.040;4.490;2023-07-29T07:05:21;21.30;99.90
41447;DHT22;27185;52.040;4.490;2023-07-29T07:08:06;21.40;99.90
41447;DHT22;27185;52.040;4.490;2023-07-29T07:10:52;21.40;99.90
41447;DHT22;27185;52.040;4.490;2023-07-29T07:13:37;21.50;99.90
41447;DHT22;27185;52.040;4.490;2023-07-29T07:16:23;21.50;99.90
41447;DHT22;27185;52.040;4.490;2023-07-29T07:19:09;21.60;99.90
41447;DHT22;27185;52.040;4.490;2023-07-29T07:21:54;21.70;99.90
41447;DHT22;27185;52.040;4.490;2023-07-29T07:24:40;21.70;99.90
41447;DHT22;27185;52.040;4.490;2023-07-29T07:27:25;21.80;99.90
41447;DHT22;27185;52.040;4.490;2023-07-29T07:30:11;21.90;99.90
41447;DHT22;27185;52.040;4.490;2023-07-29T07:32:57;21.90;99.90
41447;DHT22;27185;52.040;4.490;2023-07-29T07:35:43;22.00;99.90
41447;DHT22;27185;52.040;4.490;2023-07-29T07:38:28;22.10;99.90
41447;DHT22;27185;52.040;4.490;2023-07-29T07:41:14;22.20;99.90
41447;DHT22;27185;52.040;4.490;2023-07-29T07:44:00;22.30;99.90
41447;DHT22;27185;52.040;4.490;2023-07-29T07:46:45;22.40;99.90
41447;DHT22;27185;52.040;4.490;2023-07-29T07:49:31;22.40;99.90
41447;DHT22;27185;52.040;4.490;2023-07-29T07:52:17;22.50;99.90
41447;DHT22;27185;52.040;4.490;2023-07-29T07:55:03;22.50;99.90
41447;DHT22;27185;52.040;4.490;2023-07-29T07:57:48;22.50;99.90
41447;DHT22;27185;52.040;4.490;2023-07-29T08:00:34;22.60;99.90
41447;DHT22;27185;52.040;4.490;2023-07-29T08:03:20;22.60;99.90
41447;DHT22;27185;52.040;4.490;2023-07-29T08:06:05;22.70;99.90
41447;DHT22;27185;52.040;4.490;2023-07-29T08:08:51;22.60;99.90
41447;DHT22;27185;52.040;4.490;2023-07-29T08:11:36;22.70;99.90
41447;DHT22;27185;52.040;4.490;2023-07-29T08:14:22;22.80;99.90
41447;DHT22;27185;52.040;4.490;2023-07-29T08:17:08;22.90;99.90
41447;DHT22;27185;52.040;4.490;2023-07-29T08:19:53;23.00;99.90
41447;DHT22;27185;52.040;4.490;2023-07-29T08:22:39;23.10;99.90
41447;DHT22;27185;52.040;4.490;2023-07-29T08:25:24;23.10;99.90
41447;DHT22;27185;52.040;4.490;2023-07-29T08:28:10;23.20;99.90
41447;DHT22;27185;52.040;4.490;2023-07-29T08:30:57;23.20;99.90
41447;DHT22;27185;52.040;4.490;2023-07-29T08:33:42;23.20;99.90
41447;DHT22;27185;52.040;4.490;2023-07-29T08:36:28;23.20;99.90
41447;DHT22;27185;52.040;4.490;2023-07-29T08:39:13;23.20;99.90
41447;DHT22;27185;52.040;4.490;2023-07-29T08:42:04;23.30;99.90
41447;DHT22;27185;52.040;4.490;2023-07-29T08:44:54;23.40;99.90
41447;DHT22;27185;52.040;4.490;2023-07-29T08:47:40;23.40;99.90
41447;DHT22;27185;52.040;4.490;2023-07-29T08:50:25;23.40;99.90
41447;DHT22;27185;52.040;4.490;2023-07-29T08:53:12;23.40;99.90
41447;DHT22;27185;52.040;4.490;2023-07-29T08:55:58;23.30;99.90
41447;DHT22;27185;52.040;4.490;2023-07-29T08:58:44;23.40;99.90
41447;DHT22;27185;52.040;4.490;2023-07-29T09:01:30;23.30;99.90
41447;DHT22;27185;52.040;4.490;2023-07-29T09:04:16;23.30;99.90
41447;DHT22;27185;52.040;4.490;2023-07-29T09:07:03;23.10;99.90
41447;DHT22;27185;52.040;4.490;2023-07-29T09:09:50;22.90;99.90
41447;DHT22;27185;52.040;4.490;2023-07-29T09:12:36;22.70;99.90
41447;DHT22;27185;52.040;4.490;2023-07-29T09:15:29;22.40;99.90
41447;DHT22;27185;52.040;4.490;2023-07-29T09:18:17;22.20;99.90
41447;DHT22;27185;52.040;4.490;2023-07-29T09:21:04;22.00;99.90
41447;DHT22;27185;52.040;4.490;2023-07-29T09:23:50;21.90;99.90
41447;DHT22;27185;52.040;4.490;2023-07-29T09:26:37;21.90;99.90
41447;DHT22;27185;52.040;4.490;2023-07-29T09:29:23;21.90;99.90
41447;DHT22;27185;52.040;4.490;2023-07-29T09:32:19;22.00;99.90
41447;DHT22;27185;52.040;4.490;2023-07-29T09:35:10;22.00;99.90
41447;DHT22;27185;52.040;4.490;2023-07-29T09:37:56;22.20;99.90
41447;DHT22;27185;52.040;4.490;2023-07-29T09:40:42;22.30;99.90
41447;DHT22;27185;52.040;4.490;2023-07-29T09:43:32;22.40;99.90
41447;DHT22;27185;52.040;4.490;2023-07-29T09:46:17;22.50;99.90
41447;DHT22;27185;52.040;4.490;2023-07-29T09:49:07;22.50;99.90
41447;DHT22;27185;52.040;4.490;2023-07-29T09:51:55;22.60;99.90
41447;DHT22;27185;52.040;4.490;2023-07-29T09:54:43;22.60;99.90
41447;DHT22;27185;52.040;4.490;2023-07-29T09:57:30;22.60;99.90
41447;DHT22;27185;52.040;4.490;2023-07-29T10:00:15;22.70;99.90
41447;DHT22;27185;52.040;4.490;2023-07-29T10:03:48;22.70;99.90
41447;DHT22;27185;52.040;4.490;2023-07-29T10:06:25;22.80;99.90
41447;DHT22;27185;52.040;4.490;2023-07-29T10:09:11;22.80;99.90
41447;DHT22;27185;52.040;4.490;2023-07-29T10:11:57;22.90;99.90
41447;DHT22;27185;52.040;4.490;2023-07-29T10:14:44;22.90;99.90
41447;DHT22;27185;52.040;4.490;2023-07-29T10:17:34;22.80;99.90
41447;DHT22;27185;52.040;4.490;2023-07-29T10:20:20;22.80;99.90
41447;DHT22;27185;52.040;4.490;2023-07-29T10:23:07;22.70;99.90
41447;DHT22;27185;52.040;4.490;2023-07-29T10:26:04;22.60;99.90
41447;DHT22;27185;52.040;4.490;2023-07-29T10:28:52;22.50;99.90
41447;DHT22;27185;52.040;4.490;2023-07-29T10:31:43;22.40;99.90
41447;DHT22;27185;52.040;4.490;2023-07-29T10:34:30;22.30;99.90
41447;DHT22;27185;52.040;4.490;2023-07-29T10:37:17;22.20;99.90
41447;DHT22;27185;52.040;4.490;2023-07-29T10:40:06;22.10;99.90
41447;DHT22;27185;52.040;4.490;2023-07-29T10:43:09;22.00;99.90
41447;DHT22;27185;52.040;4.490;2023-07-29T10:45:56;22.00;99.90
41447;DHT22;27185;52.040;4.490;2023-07-29T10:48:42;21.90;99.90
41447;DHT22;27185;52.040;4.490;2023-07-29T10:51:30;21.90;99.90
41447;DHT22;27185;52.040;4.490;2023-07-29T10:54:17;21.90;99.90
41447;DHT22;27185;52.040;4.490;2023-07-29T10:57:03;22.00;99.90
41447;DHT22;27185;52.040;4.490;2023-07-29T10:59:54;22.10;99.90
41447;DHT22;27185;52.040;4.490;2023-07-29T11:02:56;22.20;99.90
41447;DHT22;27185;52.040;4.490;2023-07-29T11:05:47;22.50;99.90
41447;DHT22;27185;52.040;4.490;2023-07-29T11:08:33;22.70;99.90
41447;DHT22;27185;52.040;4.490;2023-07-29T11:11:20;22.90;99.90
41447;DHT22;27185;52.040;4.490;2023-07-29T11:14:05;23.10;99.90
41447;DHT22;27185;52.040;4.490;2023-07-29T11:16:53;23.30;99.90
41447;DHT22;27185;52.040;4.490;2023-07-29T11:19:39;23.40;99.90
41447;DHT22;27185;52.040;4.490;2023-07-29T11:22:25;23.40;99.90
41447;DHT22;27185;52.040;4.490;2023-07-29T11:25:13;23.50;99.90
41447;DHT22;27185;52.040;4.490;2023-07-29T11:28:02;23.50;99.90
41447;DHT22;27185;52.040;4.490;2023-07-29T11:30:49;23.60;99.90
41447;DHT22;27185;52.040;4.490;2023-07-29T11:33:38;23.60;99.90
41447;DHT22;27185;52.040;4.490;2023-07-29T11:36:24;23.60;99.90
41447;DHT22;27185;52.040;4.490;2023-07-29T11:39:10;23.60;99.90
41447;DHT22;27185;52.040;4.490;2023-07-29T11:41:57;23.60;99.90
41447;DHT22;27185;52.040;4.490;2023-07-29T11:44:42;23.60;99.90
41447;DHT22;27185;52.040;4.490;2023-07-29T11:47:29;23.60;99.90
41447;DHT22;27185;52.040;4.490;2023-07-29T11:50:15;23.70;99.90
41447;DHT22;27185;52.040;4.490;2023-07-29T11:53:01;23.80;99.90
41447;DHT22;27185;52.040;4.490;2023-07-29T11:55:51;23.90;99.90
41447;DHT22;27185;52.040;4.490;2023-07-29T11:58:38;24.10;99.90
41447;DHT22;27185;52.040;4.490;2023-07-29T12:01:24;24.20;99.90
41447;DHT22;27185;52.040;4.490;2023-07-29T12:04:10;24.30;99.90
41447;DHT22;27185;52.040;4.490;2023-07-29T12:06:56;24.30;99.90
41447;DHT22;27185;52.040;4.490;2023-07-29T12:09:43;24.20;99.90
41447;DHT22;27185;52.040;4.490;2023-07-29T12:12:28;24.10;99.90
41447;DHT22;27185;52.040;4.490;2023-07-29T12:15:23;24.10;99.90
41447;DHT22;27185;52.040;4.490;2023-07-29T12:18:09;24.10;99.90
41447;DHT22;27185;52.040;4.490;2023-07-29T12:20:55;24.30;99.90
41447;DHT22;27185;52.040;4.490;2023-07-29T12:23:41;24.40;99.90
41447;DHT22;27185;52.040;4.490;2023-07-29T12:26:28;24.60;99.90
41447;DHT22;27185;52.040;4.490;2023-07-29T12:29:18;24.70;99.90
41447;DHT22;27185;52.040;4.490;2023-07-29T12:32:08;24.90;99.90
41447;DHT22;27185;52.040;4.490;2023-07-29T12:34:54;25.10;99.90
41447;DHT22;27185;52.040;4.490;2023-07-29T12:37:40;25.10;99.90
41447;DHT22;27185;52.040;4.490;2023-07-29T12:40:28;25.10;99.90
41447;DHT22;27185;52.040;4.490;2023-07-29T12:43:14;25.20;99.90
41447;DHT22;27185;52.040;4.490;2023-07-29T12:45:59;25.30;99.90
41447;DHT22;27185;52.040;4.490;2023-07-29T12:48:45;25.40;99.90
41447;DHT22;27185;52.040;4.490;2023-07-29T12:51:31;25.50;99.90
41447;DHT22;27185;52.040;4.490;2023-07-29T12:54:16;25.70;99.90
41447;DHT22;27185;52.040;4.490;2023-07-29T12:57:02;25.80;99.90
41447;DHT22;27185;52.040;4.490;2023-07-29T12:59:48;26.10;99.90
41447;DHT22;27185;52.040;4.490;2023-07-29T13:02:33;26.30;99.90
41447;DHT22;27185;52.040;4.490;2023-07-29T13:05:19;26.50;99.60
41447;DHT22;27185;52.040;4.490;2023-07-29T13:08:05;26.60;99.00
41447;DHT22;27185;52.040;4.490;2023-07-29T13:10:50;26.60;98.70
41447;DHT22;27185;52.040;4.490;2023-07-29T13:13:36;26.60;98.60
41447;DHT22;27185;52.040;4.490;2023-07-29T13:16:22;26.70;98.80
41447;DHT22;27185;52.040;4.490;2023-07-29T13:19:07;26.90;99.20
41447;DHT22;27185;52.040;4.490;2023-07-29T13:21:53;27.00;98.30
41447;DHT22;27185;52.040;4.490;2023-07-29T13:24:38;27.30;98.00
41447;DHT22;27185;52.040;4.490;2023-07-29T13:27:24;27.50;97.30
41447;DHT22;27185;52.040;4.490;2023-07-29T13:30:10;27.70;96.80
41447;DHT22;27185;52.040;4.490;2023-07-29T13:32:56;27.90;96.60
41447;DHT22;27185;52.040;4.490;2023-07-29T13:35:42;28.00;96.20
41447;DHT22;27185;52.040;4.490;2023-07-29T13:38:27;28.20;95.50
41447;DHT22;27185;52.040;4.490;2023-07-29T13:41:13;28.10;95.40
41447;DHT22;27185;52.040;4.490;2023-07-29T13:43:59;28.10;95.70
41447;DHT22;27185;52.040;4.490;2023-07-29T13:46:44;28.00;96.00
41447;DHT22;27185;52.040;4.490;2023-07-29T13:49:30;27.80;95.70
41447;DHT22;27185;52.040;4.490;2023-07-29T13:52:15;27.60;95.50
41447;DHT22;27185;52.040;4.490;2023-07-29T13:55:01;27.50;95.20
41447;DHT22;27185;52.040;4.490;2023-07-29T13:57:46;27.40;94.10
41447;DHT22;27185;52.040;4.490;2023-07-29T14:00:33;27.40;94.30
41447;DHT22;27185;52.040;4.490;2023-07-29T14:03:18;27.40;94.40
41447;DHT22;27185;52.040;4.490;2023-07-29T14:06:04;27.50;93.70
41447;DHT22;27185;52.040;4.490;2023-07-29T14:08:50;27.60;93.20
41447;DHT22;27185;52.040;4.490;2023-07-29T14:11:36;27.70;92.90
41447;DHT22;27185;52.040;4.490;2023-07-29T14:14:21;27.70;92.40
41447;DHT22;27185;52.040;4.490;2023-07-29T14:17:07;27.70;91.90
41447;DHT22;27185;52.040;4.490;2023-07-29T14:19:54;27.70;91.60
41447;DHT22;27185;52.040;4.490;2023-07-29T14:22:42;27.90;92.40
41447;DHT22;27185;52.040;4.490;2023-07-29T14:25:28;28.00;92.70
41447;DHT22;27185;52.040;4.490;2023-07-29T14:28:14;28.10;92.60
41447;DHT22;27185;52.040;4.490;2023-07-29T14:30:59;28.10;92.20
41447;DHT22;27185;52.040;4.490;2023-07-29T14:33:45;28.10;91.90
41447;DHT22;27185;52.040;4.490;2023-07-29T14:36:31;28.00;91.50
41447;DHT22;27185;52.040;4.490;2023-07-29T14:39:16;27.90;91.80
41447;DHT22;27185;52.040;4.490;2023-07-29T14:42:02;28.00;92.20
41447;DHT22;27185;52.040;4.490;2023-07-29T14:44:48;28.00;92.50
41447;DHT22;27185;52.040;4.490;2023-07-29T14:47:33;28.10;92.80
41447;DHT22;27185;52.040;4.490;2023-07-29T14:50:20;28.10;93.30
41447;DHT22;27185;52.040;4.490;2023-07-29T14:53:06;28.00;93.00
41447;DHT22;27185;52.040;4.490;2023-07-29T14:55:51;27.90;92.60
41447;DHT22;27185;52.040;4.490;2023-07-29T14:58:37;27.80;93.10
41447;DHT22;27185;52.040;4.490;2023-07-29T15:01:23;27.70;93.10
41447;DHT22;27185;52.040;4.490;2023-07-29T15:04:08;27.70;93.70
41447;DHT22;27185;52.040;4.490;2023-07-29T15:06:54;27.80;94.20
41447;DHT22;27185;52.040;4.490;2023-07-29T15:09:40;27.90;93.60
41447;DHT22;27185;52.040;4.490;2023-07-29T15:12:25;28.00;93.40
41447;DHT22;27185;52.040;4.490;2023-07-29T15:15:12;28.20;93.30
41447;DHT22;27185;52.040;4.490;2023-07-29T15:17:57;28.10;93.30
41447;DHT22;27185;52.040;4.490;2023-07-29T15:20:44;28.00;93.40
41447;DHT22;27185;52.040;4.490;2023-07-29T15:23:29;28.00;93.40
41447;DHT22;27185;52.040;4.490;2023-07-29T15:26:16;28.10;93.70
41447;DHT22;27185;52.040;4.490;2023-07-29T15:29:02;28.10;93.90
41447;DHT22;27185;52.040;4.490;2023-07-29T15:31:47;28.10;93.60
41447;DHT22;27185;52.040;4.490;2023-07-29T15:34:33;28.10;93.70
41447;DHT22;27185;52.040;4.490;2023-07-29T15:37:20;28.10;93.70
41447;DHT22;27185;52.040;4.490;2023-07-29T15:40:07;28.20;92.70
41447;DHT22;27185;52.040;4.490;2023-07-29T15:42:54;28.10;92.40
41447;DHT22;27185;52.040;4.490;2023-07-29T15:45:40;28.10;91.10
41447;DHT22;27185;52.040;4.490;2023-07-29T15:48:25;28.10;90.80
41447;DHT22;27185;52.040;4.490;2023-07-29T15:51:12;28.00;90.40
41447;DHT22;27185;52.040;4.490;2023-07-29T15:53:58;28.00;89.80
41447;DHT22;27185;52.040;4.490;2023-07-29T15:56:43;28.10;90.30
41447;DHT22;27185;52.040;4.490;2023-07-29T15:59:29;28.00;88.60
41447;DHT22;27185;52.040;4.490;2023-07-29T16:02:15;28.10;88.20
41447;DHT22;27185;52.040;4.490;2023-07-29T16:05:00;28.20;89.60
41447;DHT22;27185;52.040;4.490;2023-07-29T16:07:46;28.20;90.00
41447;DHT22;27185;52.040;4.490;2023-07-29T16:10:32;28.30;88.80
41447;DHT22;27185;52.040;4.490;2023-07-29T16:13:20;28.40;89.40
41447;DHT22;27185;52.040;4.490;2023-07-29T16:16:06;28.50;88.20
41447;DHT22;27185;52.040;4.490;2023-07-29T16:18:51;28.60;84.80
41447;DHT22;27185;52.040;4.490;2023-07-29T16:21:37;28.60;86.00
41447;DHT22;27185;52.040;4.490;2023-07-29T16:24:23;28.80;85.00
41447;DHT22;27185;52.040;4.490;2023-07-29T16:27:08;28.80;85.20
41447;DHT22;27185;52.040;4.490;2023-07-29T16:29:54;28.80;83.30
41447;DHT22;27185;52.040;4.490;2023-07-29T16:32:39;28.80;83.50
41447;DHT22;27185;52.040;4.490;2023-07-29T16:35:25;28.80;83.40
41447;DHT22;27185;52.040;4.490;2023-07-29T16:38:11;28.70;83.00
41447;DHT22;27185;52.040;4.490;2023-07-29T16:40:56;28.60;82.20
41447;DHT22;27185;52.040;4.490;2023-07-29T16:43:42;28.50;83.20
41447;DHT22;27185;52.040;4.490;2023-07-29T16:46:28;28.40;82.60
41447;DHT22;27185;52.040;4.490;2023-07-29T16:49:14;28.30;83.60
41447;DHT22;27185;52.040;4.490;2023-07-29T16:52:01;28.30;84.30
41447;DHT22;27185;52.040;4.490;2023-07-29T16:54:47;28.10;83.40
41447;DHT22;27185;52.040;4.490;2023-07-29T16:57:33;28.10;83.00
41447;DHT22;27185;52.040;4.490;2023-07-29T17:00:18;28.00;82.60
41447;DHT22;27185;52.040;4.490;2023-07-29T17:03:04;28.00;84.00
41447;DHT22;27185;52.040;4.490;2023-07-29T17:05:49;27.90;83.80
41447;DHT22;27185;52.040;4.490;2023-07-29T17:08:38;27.80;83.90
41447;DHT22;27185;52.040;4.490;2023-07-29T17:11:24;27.70;84.80
41447;DHT22;27185;52.040;4.490;2023-07-29T17:14:10;27.60;85.30
41447;DHT22;27185;52.040;4.490;2023-07-29T17:16:55;27.50;85.40
41447;DHT22;27185;52.040;4.490;2023-07-29T17:19:41;27.40;85.30
41447;DHT22;27185;52.040;4.490;2023-07-29T17:22:27;27.40;86.30
41447;DHT22;27185;52.040;4.490;2023-07-29T17:25:12;27.20;85.50
41447;DHT22;27185;52.040;4.490;2023-07-29T17:27:59;27.20;86.60
41447;DHT22;27185;52.040;4.490;2023-07-29T17:30:49;27.20;87.10
41447;DHT22;27185;52.040;4.490;2023-07-29T17:33:35;27.20;86.10
41447;DHT22;27185;52.040;4.490;2023-07-29T17:36:21;27.20;88.50
41447;DHT22;27185;52.040;4.490;2023-07-29T17:39:07;27.10;88.00
41447;DHT22;27185;52.040;4.490;2023-07-29T17:41:52;27.10;87.50
41447;DHT22;27185;52.040;4.490;2023-07-29T17:44:38;27.00;88.10